sensor_id;sensor_type;location;lat;lon;timestamp;P1;durP1;ratioP1;P2;durP2;ratioP2
26516;SDS011;14190;51.342;6.338;2023-11-18T00:01:05;15.75;;;5.47;;
26516;SDS011;14190;51.342;6.338;2023-11-18T00:03:32;13.68;;;4.90;;
26516;SDS011;14190;51.342;6.338;2023-11-18T00:06:00;9.35;;;6.12;;
26516;SDS011;14190;51.342;6.338;2023-11-18T00:08:27;10.18;;;4.83;;
26516;SDS011;14190;51.342;6.338;2023-11-18T00:10:54;11.88;;;4.47;;
26516;SDS011;14190;51.342;6.338;2023-11-18T00:13:22;12.70;;;4.05;;
26516;SDS011;14190;51.342;6.338;2023-11-18T00:15:49;12.88;;;4.37;;
26516;SDS011;14190;51.342;6.338;2023-11-18T00:18:16;8.43;;;4.33;;
26516;SDS011;14190;51.342;6.338;2023-11-18T00:20:45;14.25;;;7.05;;
26516;SDS011;14190;51.342;6.338;2023-11-18T00:23:12;8.80;;;5.40;;
26516;SDS011;14190;51.342;6.338;2023-11-18T00:25:40;16.05;;;4.42;;
26516;SDS011;14190;51.342;6.338;2023-11-18T00:28:07;10.70;;;3.40;;
26516;SDS011;14190;51.342;6.338;2023-11-18T00:30:34;9.83;;;4.12;;
26516;SDS011;14190;51.342;6.338;2023-11-18T00:33:02;7.95;;;3.62;;
26516;SDS011;14190;51.342;6.338;2023-11-18T00:35:29;9.65;;;3.95;;
26516;SDS011;14190;51.342;6.338;2023-11-18T00:37:58;12.50;;;3.77;;
26516;SDS011;14190;51.342;6.338;2023-11-18T00:40:26;10.35;;;4.50;;
26516;SDS011;14190;51.342;6.338;2023-11-18T00:42:55;11.35;;;3.90;;
26516;SDS011;14190;51.342;6.338;2023-11-18T00:45:23;11.05;;;5.25;;
26516;SDS011;14190;51.342;6.338;2023-11-18T00:47:50;14.38;;;4.55;;
26516;SDS011;14190;51.342;6.338;2023-11-18T00:50:18;10.43;;;4.42;;
26516;SDS011;14190;51.342;6.338;2023-11-18T00:52:45;19.15;;;5.45;;
26516;SDS011;14190;51.342;6.338;2023-11-18T00:55:14;18.05;;;7.03;;
26516;SDS011;14190;51.342;6.338;2023-11-18T00:57:44;7.25;;;4.47;;
26516;SDS011;14190;51.342;6.338;2023-11-18T01:00:12;11.85;;;5.70;;
26516;SDS011;14190;51.342;6.338;2023-11-18T01:02:44;10.63;;;4.10;;
26516;SDS011;14190;51.342;6.338;2023-11-18T01:05:14;9.68;;;3.92;;
26516;SDS011;14190;51.342;6.338;2023-11-18T01:07:41;8.03;;;4.25;;
26516;SDS011;14190;51.342;6.338;2023-11-18T01:10:09;8.10;;;4.50;;
26516;SDS011;14190;51.342;6.338;2023-11-18T01:12:37;9.25;;;3.55;;
26516;SDS011;14190;51.342;6.338;2023-11-18T01:15:04;6.37;;;4.08;;
26516;SDS011;14190;51.342;6.338;2023-11-18T01:17:32;13.65;;;6.55;;
26516;SDS011;14190;51.342;6.338;2023-11-18T01:19:59;17.87;;;5.62;;
26516;SDS011;14190;51.342;6.338;2023-11-18T01:22:28;7.67;;;4.42;;
26516;SDS011;14190;51.342;6.338;2023-11-18T01:24:56;10.48;;;5.40;;
26516;SDS011;14190;51.342;6.338;2023-11-18T01:27:24;13.68;;;4.22;;
26516;SDS011;14190;51.342;6.338;2023-11-18T01:29:51;9.98;;;4.78;;
26516;SDS011;14190;51.342;6.338;2023-11-18T01:32:19;9.48;;;4.03;;
26516;SDS011;14190;51.342;6.338;2023-11-18T01:34:46;19.23;;;7.15;;
26516;SDS011;14190;51.342;6.338;2023-11-18T01:37:16;29.90;;;9.10;;
26516;SDS011;14190;51.342;6.338;2023-11-18T01:39:44;15.60;;;6.25;;
26516;SDS011;14190;51.342;6.338;2023-11-18T01:42:11;7.72;;;4.62;;
26516;SDS011;14190;51.342;6.338;2023-11-18T01:44:38;7.53;;;4.17;;
26516;SDS011;14190;51.342;6.338;2023-11-18T01:47:07;9.80;;;3.83;;
26516;SDS011;14190;51.342;6.338;2023-11-18T01:49:36;7.08;;;4.60;;
26516;SDS011;14190;51.342;6.338;2023-11-18T01:52:11;11.17;;;3.17;;
26516;SDS011;14190;51.342;6.338;2023-11-18T01:54:36;9.23;;;2.92;;
26516;SDS011;14190;51.342;6.338;2023-11-18T01:57:04;9.05;;;4.65;;
26516;SDS011;14190;51.342;6.338;2023-11-18T01:59:32;10.38;;;4.42;;
26516;SDS011;14190;51.342;6.338;2023-11-18T02:02:00;15.30;;;5.83;;
26516;SDS011;14190;51.342;6.338;2023-11-18T02:04:28;11.15;;;3.60;;
26516;SDS011;14190;51.342;6.338;2023-11-18T02:06:56;11.30;;;4.95;;
26516;SDS011;14190;51.342;6.338;2023-11-18T02:09:24;12.85;;;5.78;;
26516;SDS011;14190;51.342;6.338;2023-11-18T02:14:40;14.47;;;4.05;;
26516;SDS011;14190;51.342;6.338;2023-11-18T02:17:08;9.00;;;3.42;;
26516;SDS011;14190;51.342;6.338;2023-11-18T02:19:37;8.65;;;4.28;;
26516;SDS011;14190;51.342;6.338;2023-11-18T02:22:06;8.65;;;4.30;;
26516;SDS011;14190;51.342;6.338;2023-11-18T02:24:34;10.32;;;5.42;;
26516;SDS011;14190;51.342;6.338;2023-11-18T02:27:06;12.68;;;4.25;;
26516;SDS011;14190;51.342;6.338;2023-11-18T02:29:37;9.60;;;4.17;;
26516;SDS011;14190;51.342;6.338;2023-11-18T02:34:56;7.08;;;4.58;;
26516;SDS011;14190;51.342;6.338;2023-11-18T02:37:20;12.30;;;4.67;;
26516;SDS011;14190;51.342;6.338;2023-11-18T02:39:48;14.53;;;4.97;;
26516;SDS011;14190;51.342;6.338;2023-11-18T02:42:17;14.67;;;7.13;;
26516;SDS011;14190;51.342;6.338;2023-11-18T02:44:44;11.95;;;4.95;;
26516;SDS011;14190;51.342;6.338;2023-11-18T02:47:12;11.08;;;4.87;;
26516;SDS011;14190;51.342;6.338;2023-11-18T02:49:41;11.38;;;5.03;;
26516;SDS011;14190;51.342;6.338;2023-11-18T02:52:08;8.10;;;4.03;;
26516;SDS011;14190;51.342;6.338;2023-11-18T02:54:36;14.28;;;5.97;;
26516;SDS011;14190;51.342;6.338;2023-11-18T02:57:03;14.70;;;4.28;;
26516;SDS011;14190;51.342;6.338;2023-11-18T02:59:31;10.75;;;4.55;;
26516;SDS011;14190;51.342;6.338;2023-11-18T03:01:59;6.72;;;4.45;;
26516;SDS011;14190;51.342;6.338;2023-11-18T03:04:28;14.33;;;4.03;;
26516;SDS011;14190;51.342;6.338;2023-11-18T03:06:55;11.40;;;5.62;;
26516;SDS011;14190;51.342;6.338;2023-11-18T03:09:22;11.70;;;4.37;;
26516;SDS011;14190;51.342;6.338;2023-11-18T03:11:51;12.28;;;5.03;;
26516;SDS011;14190;51.342;6.338;2023-11-18T03:14:19;11.95;;;5.08;;
26516;SDS011;14190;51.342;6.338;2023-11-18T03:16:46;13.50;;;3.98;;
26516;SDS011;14190;51.342;6.338;2023-11-18T03:19:14;9.90;;;4.47;;
26516;SDS011;14190;51.342;6.338;2023-11-18T03:21:41;10.08;;;5.05;;
26516;SDS011;14190;51.342;6.338;2023-11-18T03:24:09;12.65;;;5.75;;
26516;SDS011;14190;51.342;6.338;2023-11-18T03:26:37;11.22;;;3.95;;
26516;SDS011;14190;51.342;6.338;2023-11-18T03:29:04;6.37;;;3.33;;
26516;SDS011;14190;51.342;6.338;2023-11-18T03:31:32;11.83;;;3.65;;
26516;SDS011;14190;51.342;6.338;2023-11-18T03:33:59;9.70;;;4.25;;
26516;SDS011;14190;51.342;6.338;2023-11-18T03:36:27;9.58;;;4.08;;
26516;SDS011;14190;51.342;6.338;2023-11-18T03:38:54;13.78;;;3.87;;
26516;SDS011;14190;51.342;6.338;2023-11-18T03:41:22;8.03;;;3.15;;
26516;SDS011;14190;51.342;6.338;2023-11-18T03:43:50;13.18;;;3.62;;
26516;SDS011;14190;51.342;6.338;2023-11-18T03:46:17;8.98;;;4.33;;
26516;SDS011;14190;51.342;6.338;2023-11-18T03:48:45;12.73;;;4.95;;
26516;SDS011;14190;51.342;6.338;2023-11-18T03:51:12;10.60;;;3.50;;
26516;SDS011;14190;51.342;6.338;2023-11-18T03:53:39;11.20;;;5.22;;
26516;SDS011;14190;51.342;6.338;2023-11-18T03:56:07;11.15;;;3.55;;
26516;SDS011;14190;51.342;6.338;2023-11-18T03:58:34;10.98;;;4.42;;
26516;SDS011;14190;51.342;6.338;2023-11-18T04:01:03;8.43;;;3.55;;
26516;SDS011;14190;51.342;6.338;2023-11-18T04:03:30;10.23;;;5.28;;
26516;SDS011;14190;51.342;6.338;2023-11-18T04:05:58;7.55;;;3.67;;
26516;SDS011;14190;51.342;6.338;2023-11-18T04:08:25;7.70;;;4.35;;
26516;SDS011;14190;51.342;6.338;2023-11-18T04:10:53;12.43;;;3.42;;
26516;SDS011;14190;51.342;6.338;2023-11-18T04:13:20;13.20;;;5.30;;
26516;SDS011;14190;51.342;6.338;2023-11-18T04:15:48;11.40;;;3.90;;
26516;SDS011;14190;51.342;6.338;2023-11-18T04:18:15;13.32;;;5.03;;
26516;SDS011;14190;51.342;6.338;2023-11-18T04:20:43;14.43;;;5.47;;
26516;SDS011;14190;51.342;6.338;2023-11-18T04:23:10;12.75;;;4.55;;
26516;SDS011;14190;51.342;6.338;2023-11-18T04:25:38;11.88;;;6.33;;
26516;SDS011;14190;51.342;6.338;2023-11-18T04:28:05;12.47;;;5.45;;
26516;SDS011;14190;51.342;6.338;2023-11-18T04:30:33;10.72;;;5.33;;
26516;SDS011;14190;51.342;6.338;2023-11-18T04:33:00;11.45;;;4.05;;
26516;SDS011;14190;51.342;6.338;2023-11-18T04:35:27;13.72;;;5.30;;
26516;SDS011;14190;51.342;6.338;2023-11-18T04:37:55;17.95;;;4.78;;
26516;SDS011;14190;51.342;6.338;2023-11-18T04:40:23;21.15;;;6.08;;
26516;SDS011;14190;51.342;6.338;2023-11-18T04:42:50;13.13;;;4.45;;
26516;SDS011;14190;51.342;6.338;2023-11-18T04:45:18;10.88;;;4.60;;
26516;SDS011;14190;51.342;6.338;2023-11-18T04:47:45;15.88;;;5.37;;
26516;SDS011;14190;51.342;6.338;2023-11-18T04:50:12;11.50;;;5.25;;
26516;SDS011;14190;51.342;6.338;2023-11-18T04:52:41;23.83;;;6.33;;
26516;SDS011;14190;51.342;6.338;2023-11-18T04:55:08;14.65;;;6.05;;
26516;SDS011;14190;51.342;6.338;2023-11-18T04:57:36;13.88;;;4.35;;
26516;SDS011;14190;51.342;6.338;2023-11-18T05:00:05;12.73;;;5.60;;
26516;SDS011;14190;51.342;6.338;2023-11-18T05:02:34;10.40;;;5.28;;
26516;SDS011;14190;51.342;6.338;2023-11-18T05:05:02;25.55;;;5.70;;
26516;SDS011;14190;51.342;6.338;2023-11-18T05:07:31;18.60;;;7.62;;
26516;SDS011;14190;51.342;6.338;2023-11-18T05:09:59;15.08;;;5.83;;
26516;SDS011;14190;51.342;6.338;2023-11-18T05:12:27;11.78;;;6.05;;
26516;SDS011;14190;51.342;6.338;2023-11-18T05:14:56;13.98;;;5.28;;
26516;SDS011;14190;51.342;6.338;2023-11-18T05:17:23;18.67;;;7.20;;
26516;SDS011;14190;51.342;6.338;2023-11-18T05:19:50;10.13;;;4.60;;
26516;SDS011;14190;51.342;6.338;2023-11-18T05:22:18;16.20;;;6.25;;
26516;SDS011;14190;51.342;6.338;2023-11-18T05:24:45;31.45;;;7.12;;
26516;SDS011;14190;51.342;6.338;2023-11-18T05:27:12;24.75;;;7.67;;
26516;SDS011;14190;51.342;6.338;2023-11-18T05:29:40;21.00;;;7.25;;
26516;SDS011;14190;51.342;6.338;2023-11-18T05:32:15;21.25;;;6.95;;
26516;SDS011;14190;51.342;6.338;2023-11-18T05:34:43;11.57;;;5.92;;
26516;SDS011;14190;51.342;6.338;2023-11-18T05:37:10;13.10;;;6.15;;
26516;SDS011;14190;51.342;6.338;2023-11-18T05:39:37;25.52;;;6.95;;
26516;SDS011;14190;51.342;6.338;2023-11-18T05:42:06;22.70;;;7.00;;
26516;SDS011;14190;51.342;6.338;2023-11-18T05:44:41;15.60;;;5.10;;
26516;SDS011;14190;51.342;6.338;2023-11-18T05:47:06;11.05;;;4.60;;
26516;SDS011;14190;51.342;6.338;2023-11-18T05:49:33;20.77;;;5.42;;
26516;SDS011;14190;51.342;6.338;2023-11-18T05:52:01;11.25;;;5.87;;
26516;SDS011;14190;51.342;6.338;2023-11-18T05:54:28;11.95;;;5.92;;
26516;SDS011;14190;51.342;6.338;2023-11-18T05:56:56;10.78;;;4.33;;
26516;SDS011;14190;51.342;6.338;2023-11-18T05:59:26;15.72;;;5.62;;
26516;SDS011;14190;51.342;6.338;2023-11-18T06:01:53;14.40;;;5.78;;
26516;SDS011;14190;51.342;6.338;2023-11-18T06:04:22;16.27;;;6.85;;
26516;SDS011;14190;51.342;6.338;2023-11-18T06:06:49;18.77;;;7.33;;
26516;SDS011;14190;51.342;6.338;2023-11-18T06:09:18;16.40;;;5.85;;
26516;SDS011;14190;51.342;6.338;2023-11-18T06:11:47;14.55;;;6.15;;
26516;SDS011;14190;51.342;6.338;2023-11-18T06:14:16;22.07;;;5.90;;
26516;SDS011;14190;51.342;6.338;2023-11-18T06:16:43;17.05;;;5.08;;
26516;SDS011;14190;51.342;6.338;2023-11-18T06:19:10;14.00;;;6.92;;
26516;SDS011;14190;51.342;6.338;2023-11-18T06:21:38;15.98;;;5.72;;
26516;SDS011;14190;51.342;6.338;2023-11-18T06:24:06;17.98;;;6.85;;
26516;SDS011;14190;51.342;6.338;2023-11-18T06:26:33;11.30;;;5.67;;
26516;SDS011;14190;51.342;6.338;2023-11-18T06:29:02;17.27;;;5.12;;
26516;SDS011;14190;51.342;6.338;2023-11-18T06:31:30;19.75;;;8.53;;
26516;SDS011;14190;51.342;6.338;2023-11-18T06:33:58;17.17;;;8.50;;
26516;SDS011;14190;51.342;6.338;2023-11-18T06:36:25;22.00;;;6.00;;
26516;SDS011;14190;51.342;6.338;2023-11-18T06:38:54;20.92;;;7.03;;
26516;SDS011;14190;51.342;6.338;2023-11-18T06:41:22;13.68;;;5.58;;
26516;SDS011;14190;51.342;6.338;2023-11-18T06:43:52;22.75;;;6.35;;
26516;SDS011;14190;51.342;6.338;2023-11-18T06:46:28;16.55;;;5.90;;
26516;SDS011;14190;51.342;6.338;2023-11-18T06:48:57;14.58;;;5.37;;
26516;SDS011;14190;51.342;6.338;2023-11-18T06:51:25;15.48;;;5.47;;
26516;SDS011;14190;51.342;6.338;2023-11-18T06:53:54;11.63;;;4.87;;
26516;SDS011;14190;51.342;6.338;2023-11-18T06:56:24;11.43;;;5.00;;
26516;SDS011;14190;51.342;6.338;2023-11-18T06:58:52;16.17;;;5.37;;
26516;SDS011;14190;51.342;6.338;2023-11-18T07:01:20;13.03;;;5.90;;
26516;SDS011;14190;51.342;6.338;2023-11-18T07:03:48;10.55;;;5.40;;
26516;SDS011;14190;51.342;6.338;2023-11-18T07:06:17;11.08;;;4.20;;
26516;SDS011;14190;51.342;6.338;2023-11-18T07:08:53;12.30;;;6.28;;
26516;SDS011;14190;51.342;6.338;2023-11-18T07:11:22;16.62;;;7.20;;
26516;SDS011;14190;51.342;6.338;2023-11-18T07:13:50;15.93;;;5.83;;
26516;SDS011;14190;51.342;6.338;2023-11-18T07:16:19;14.38;;;5.20;;
26516;SDS011;14190;51.342;6.338;2023-11-18T07:18:46;15.70;;;5.00;;
26516;SDS011;14190;51.342;6.338;2023-11-18T07:21:14;21.17;;;6.67;;
26516;SDS011;14190;51.342;6.338;2023-11-18T07:23:41;21.00;;;6.78;;
26516;SDS011;14190;51.342;6.338;2023-11-18T07:26:08;13.78;;;3.77;;
26516;SDS011;14190;51.342;6.338;2023-11-18T07:28:40;10.40;;;4.28;;
26516;SDS011;14190;51.342;6.338;2023-11-18T07:31:09;13.60;;;4.73;;
26516;SDS011;14190;51.342;6.338;2023-11-18T07:33:37;11.97;;;5.50;;
26516;SDS011;14190;51.342;6.338;2023-11-18T07:36:04;11.28;;;4.40;;
26516;SDS011;14190;51.342;6.338;2023-11-18T07:38:34;12.85;;;4.37;;
26516;SDS011;14190;51.342;6.338;2023-11-18T07:41:01;14.80;;;7.00;;
26516;SDS011;14190;51.342;6.338;2023-11-18T07:43:29;14.33;;;4.67;;
26516;SDS011;14190;51.342;6.338;2023-11-18T07:45:56;10.10;;;4.33;;
26516;SDS011;14190;51.342;6.338;2023-11-18T07:48:24;13.03;;;5.12;;
26516;SDS011;14190;51.342;6.338;2023-11-18T07:50:51;18.70;;;5.62;;
26516;SDS011;14190;51.342;6.338;2023-11-18T07:53:18;9.18;;;4.30;;
26516;SDS011;14190;51.342;6.338;2023-11-18T07:55:47;11.88;;;3.80;;
26516;SDS011;14190;51.342;6.338;2023-11-18T07:58:16;13.98;;;4.10;;
26516;SDS011;14190;51.342;6.338;2023-11-18T08:00:44;17.15;;;5.55;;
26516;SDS011;14190;51.342;6.338;2023-11-18T08:03:12;14.45;;;3.65;;
26516;SDS011;14190;51.342;6.338;2023-11-18T08:05:44;10.53;;;4.03;;
26516;SDS011;14190;51.342;6.338;2023-11-18T08:08:11;13.08;;;5.80;;
26516;SDS011;14190;51.342;6.338;2023-11-18T08:10:39;10.63;;;4.03;;
26516;SDS011;14190;51.342;6.338;2023-11-18T08:13:07;11.30;;;4.62;;
26516;SDS011;14190;51.342;6.338;2023-11-18T08:15:37;7.85;;;4.22;;
26516;SDS011;14190;51.342;6.338;2023-11-18T08:18:04;7.72;;;4.25;;
26516;SDS011;14190;51.342;6.338;2023-11-18T08:20:31;20.65;;;5.53;;
26516;SDS011;14190;51.342;6.338;2023-11-18T08:22:59;11.83;;;5.22;;
26516;SDS011;14190;51.342;6.338;2023-11-18T08:25:26;9.68;;;4.65;;
26516;SDS011;14190;51.342;6.338;2023-11-18T08:27:53;15.15;;;6.78;;
26516;SDS011;14190;51.342;6.338;2023-11-18T08:30:21;17.12;;;7.83;;
26516;SDS011;14190;51.342;6.338;2023-11-18T08:32:50;6.90;;;3.92;;
26516;SDS011;14190;51.342;6.338;2023-11-18T08:35:17;16.10;;;4.72;;
26516;SDS011;14190;51.342;6.338;2023-11-18T08:37:45;16.02;;;4.95;;
26516;SDS011;14190;51.342;6.338;2023-11-18T08:40:12;13.03;;;4.30;;
26516;SDS011;14190;51.342;6.338;2023-11-18T08:45:10;10.70;;;4.28;;
26516;SDS011;14190;51.342;6.338;2023-11-18T08:47:42;8.65;;;3.67;;
26516;SDS011;14190;51.342;6.338;2023-11-18T08:50:08;11.38;;;4.45;;
26516;SDS011;14190;51.342;6.338;2023-11-18T08:52:38;8.83;;;4.22;;
26516;SDS011;14190;51.342;6.338;2023-11-18T08:55:07;11.08;;;4.20;;
26516;SDS011;14190;51.342;6.338;2023-11-18T08:57:47;6.75;;;3.50;;
26516;SDS011;14190;51.342;6.338;2023-11-18T09:00:17;8.85;;;4.15;;
26516;SDS011;14190;51.342;6.338;2023-11-18T09:02:46;14.20;;;4.50;;
26516;SDS011;14190;51.342;6.338;2023-11-18T09:05:13;4.45;;;3.47;;
26516;SDS011;14190;51.342;6.338;2023-11-18T09:07:41;6.92;;;3.62;;
26516;SDS011;14190;51.342;6.338;2023-11-18T09:10:09;15.25;;;5.03;;
26516;SDS011;14190;51.342;6.338;2023-11-18T09:12:38;12.23;;;4.47;;
26516;SDS011;14190;51.342;6.338;2023-11-18T09:15:07;10.20;;;4.75;;
26516;SDS011;14190;51.342;6.338;2023-11-18T09:17:35;18.73;;;4.92;;
26516;SDS011;14190;51.342;6.338;2023-11-18T09:20:03;9.78;;;4.78;;
26516;SDS011;14190;51.342;6.338;2023-11-18T09:22:32;8.10;;;4.70;;
26516;SDS011;14190;51.342;6.338;2023-11-18T09:24:59;14.43;;;4.70;;
26516;SDS011;14190;51.342;6.338;2023-11-18T09:27:27;9.50;;;3.90;;
26516;SDS011;14190;51.342;6.338;2023-11-18T09:29:55;4.67;;;3.17;;
26516;SDS011;14190;51.342;6.338;2023-11-18T09:32:23;7.90;;;3.98;;
26516;SDS011;14190;51.342;6.338;2023-11-18T09:34:52;8.43;;;4.33;;
26516;SDS011;14190;51.342;6.338;2023-11-18T09:37:19;7.75;;;3.75;;
26516;SDS011;14190;51.342;6.338;2023-11-18T09:39:47;7.70;;;3.62;;
26516;SDS011;14190;51.342;6.338;2023-11-18T09:42:16;8.03;;;3.52;;
26516;SDS011;14190;51.342;6.338;2023-11-18T09:44:45;7.65;;;3.42;;
26516;SDS011;14190;51.342;6.338;2023-11-18T09:47:14;8.33;;;2.60;;
26516;SDS011;14190;51.342;6.338;2023-11-18T09:49:45;9.00;;;3.55;;
26516;SDS011;14190;51.342;6.338;2023-11-18T09:52:16;9.03;;;4.50;;
26516;SDS011;14190;51.342;6.338;2023-11-18T09:54:50;4.80;;;3.45;;
26516;SDS011;14190;51.342;6.338;2023-11-18T09:57:26;7.03;;;4.35;;
26516;SDS011;14190;51.342;6.338;2023-11-18T10:00:05;6.62;;;3.37;;
26516;SDS011;14190;51.342;6.338;2023-11-18T10:02:40;9.28;;;3.95;;
26516;SDS011;14190;51.342;6.338;2023-11-18T10:05:09;7.85;;;3.62;;
26516;SDS011;14190;51.342;6.338;2023-11-18T10:07:43;7.65;;;3.75;;
26516;SDS011;14190;51.342;6.338;2023-11-18T10:10:11;7.78;;;2.58;;
26516;SDS011;14190;51.342;6.338;2023-11-18T10:12:44;8.55;;;2.77;;
26516;SDS011;14190;51.342;6.338;2023-11-18T10:15:13;6.25;;;4.47;;
26516;SDS011;14190;51.342;6.338;2023-11-18T10:17:44;8.93;;;3.62;;
26516;SDS011;14190;51.342;6.338;2023-11-18T10:23:13;5.03;;;2.30;;
26516;SDS011;14190;51.342;6.338;2023-11-18T10:25:45;5.03;;;2.25;;
26516;SDS011;14190;51.342;6.338;2023-11-18T10:28:21;2.75;;;1.92;;
26516;SDS011;14190;51.342;6.338;2023-11-18T10:30:50;6.08;;;3.12;;
26516;SDS011;14190;51.342;6.338;2023-11-18T10:33:17;5.53;;;3.17;;
26516;SDS011;14190;51.342;6.338;2023-11-18T10:35:48;2.90;;;1.52;;
26516;SDS011;14190;51.342;6.338;2023-11-18T10:38:18;4.20;;;2.35;;
26516;SDS011;14190;51.342;6.338;2023-11-18T10:40:46;6.05;;;3.95;;
26516;SDS011;14190;51.342;6.338;2023-11-18T10:43:13;8.08;;;3.95;;
26516;SDS011;14190;51.342;6.338;2023-11-18T10:45:42;12.28;;;2.70;;
26516;SDS011;14190;51.342;6.338;2023-11-18T10:48:11;11.78;;;3.52;;
26516;SDS011;14190;51.342;6.338;2023-11-18T10:50:40;3.15;;;1.82;;
26516;SDS011;14190;51.342;6.338;2023-11-18T10:53:08;7.30;;;2.75;;
26516;SDS011;14190;51.342;6.338;2023-11-18T10:55:38;7.28;;;2.77;;
26516;SDS011;14190;51.342;6.338;2023-11-18T10:58:06;3.80;;;2.52;;
26516;SDS011;14190;51.342;6.338;2023-11-18T11:00:56;8.00;;;2.42;;
26516;SDS011;14190;51.342;6.338;2023-11-18T11:03:10;4.47;;;2.72;;
26516;SDS011;14190;51.342;6.338;2023-11-18T11:05:39;14.70;;;4.35;;
26516;SDS011;14190;51.342;6.338;2023-11-18T11:08:08;7.42;;;3.27;;
26516;SDS011;14190;51.342;6.338;2023-11-18T11:10:37;4.47;;;2.47;;
26516;SDS011;14190;51.342;6.338;2023-11-18T11:13:06;4.10;;;2.15;;
26516;SDS011;14190;51.342;6.338;2023-11-18T11:15:36;3.90;;;2.83;;
26516;SDS011;14190;51.342;6.338;2023-11-18T11:18:07;9.85;;;2.95;;
26516;SDS011;14190;51.342;6.338;2023-11-18T11:20:43;7.92;;;3.87;;
26516;SDS011;14190;51.342;6.338;2023-11-18T11:23:20;8.43;;;3.00;;
26516;SDS011;14190;51.342;6.338;2023-11-18T11:28:20;7.22;;;3.52;;
26516;SDS011;14190;51.342;6.338;2023-11-18T11:31:12;2.17;;;1.50;;
26516;SDS011;14190;51.342;6.338;2023-11-18T11:33:33;3.30;;;2.58;;
26516;SDS011;14190;51.342;6.338;2023-11-18T11:36:03;3.15;;;1.77;;
26516;SDS011;14190;51.342;6.338;2023-11-18T11:38:33;2.67;;;1.67;;
26516;SDS011;14190;51.342;6.338;2023-11-18T11:41:01;6.15;;;2.52;;
26516;SDS011;14190;51.342;6.338;2023-11-18T11:43:32;2.65;;;1.95;;
26516;SDS011;14190;51.342;6.338;2023-11-18T11:46:04;5.75;;;3.20;;
26516;SDS011;14190;51.342;6.338;2023-11-18T11:48:33;4.50;;;2.80;;
26516;SDS011;14190;51.342;6.338;2023-11-18T11:51:17;5.70;;;2.60;;
26516;SDS011;14190;51.342;6.338;2023-11-18T11:53:49;8.98;;;2.77;;
26516;SDS011;14190;51.342;6.338;2023-11-18T11:56:18;3.95;;;3.45;;
26516;SDS011;14190;51.342;6.338;2023-11-18T11:58:49;2.90;;;2.65;;
26516;SDS011;14190;51.342;6.338;2023-11-18T12:01:25;3.35;;;1.85;;
26516;SDS011;14190;51.342;6.338;2023-11-18T12:03:54;4.58;;;1.85;;
26516;SDS011;14190;51.342;6.338;2023-11-18T12:06:26;3.58;;;1.98;;
26516;SDS011;14190;51.342;6.338;2023-11-18T12:08:54;9.58;;;3.08;;
26516;SDS011;14190;51.342;6.338;2023-11-18T12:11:21;2.47;;;1.72;;
26516;SDS011;14190;51.342;6.338;2023-11-18T12:14:05;2.25;;;2.05;;
26516;SDS011;14190;51.342;6.338;2023-11-18T12:16:59;3.08;;;1.95;;
26516;SDS011;14190;51.342;6.338;2023-11-18T12:19:39;3.62;;;1.52;;
26516;SDS011;14190;51.342;6.338;2023-11-18T12:22:17;3.20;;;2.55;;
26516;SDS011;14190;51.342;6.338;2023-11-18T12:24:45;2.02;;;1.27;;
26516;SDS011;14190;51.342;6.338;2023-11-18T12:27:15;1.92;;;1.72;;
26516;SDS011;14190;51.342;6.338;2023-11-18T12:29:44;2.08;;;1.37;;
26516;SDS011;14190;51.342;6.338;2023-11-18T12:32:11;1.30;;;1.15;;
26516;SDS011;14190;51.342;6.338;2023-11-18T12:34:55;1.05;;;0.90;;
26516;SDS011;14190;51.342;6.338;2023-11-18T12:40:32;1.77;;;1.57;;
26516;SDS011;14190;51.342;6.338;2023-11-18T12:42:59;2.77;;;2.15;;
26516;SDS011;14190;51.342;6.338;2023-11-18T12:48:01;2.45;;;1.50;;
26516;SDS011;14190;51.342;6.338;2023-11-18T12:50:26;3.37;;;1.27;;
26516;SDS011;14190;51.342;6.338;2023-11-18T12:52:55;4.25;;;1.00;;
26516;SDS011;14190;51.342;6.338;2023-11-18T12:55:23;1.47;;;0.98;;
26516;SDS011;14190;51.342;6.338;2023-11-18T12:57:52;1.02;;;0.98;;
26516;SDS011;14190;51.342;6.338;2023-11-18T13:00:20;0.68;;;0.62;;
26516;SDS011;14190;51.342;6.338;2023-11-18T13:02:54;2.60;;;1.67;;
26516;SDS011;14190;51.342;6.338;2023-11-18T13:05:21;0.80;;;0.72;;
26516;SDS011;14190;51.342;6.338;2023-11-18T13:07:48;4.35;;;1.67;;
26516;SDS011;14190;51.342;6.338;2023-11-18T13:10:16;1.95;;;1.07;;
26516;SDS011;14190;51.342;6.338;2023-11-18T13:12:43;1.52;;;1.15;;
26516;SDS011;14190;51.342;6.338;2023-11-18T13:15:12;1.42;;;0.60;;
26516;SDS011;14190;51.342;6.338;2023-11-18T13:17:41;0.40;;;0.40;;
26516;SDS011;14190;51.342;6.338;2023-11-18T13:20:14;0.90;;;0.70;;
26516;SDS011;14190;51.342;6.338;2023-11-18T13:22:43;0.68;;;0.53;;
26516;SDS011;14190;51.342;6.338;2023-11-18T13:25:10;3.00;;;1.98;;
26516;SDS011;14190;51.342;6.338;2023-11-18T13:27:39;0.68;;;0.68;;
26516;SDS011;14190;51.342;6.338;2023-11-18T13:30:07;2.85;;;2.50;;
26516;SDS011;14190;51.342;6.338;2023-11-18T13:32:36;0.65;;;0.65;;
26516;SDS011;14190;51.342;6.338;2023-11-18T13:35:04;3.17;;;1.67;;
26516;SDS011;14190;51.342;6.338;2023-11-18T13:37:33;2.47;;;1.20;;
26516;SDS011;14190;51.342;6.338;2023-11-18T13:40:01;1.95;;;0.55;;
26516;SDS011;14190;51.342;6.338;2023-11-18T13:42:30;0.60;;;0.60;;
26516;SDS011;14190;51.342;6.338;2023-11-18T13:44:59;0.72;;;0.42;;
26516;SDS011;14190;51.342;6.338;2023-11-18T13:47:27;1.12;;;0.70;;
26516;SDS011;14190;51.342;6.338;2023-11-18T13:49:54;1.47;;;1.37;;
26516;SDS011;14190;51.342;6.338;2023-11-18T13:52:23;1.75;;;0.82;;
26516;SDS011;14190;51.342;6.338;2023-11-18T13:54:52;1.65;;;0.40;;
26516;SDS011;14190;51.342;6.338;2023-11-18T13:57:23;0.68;;;0.60;;
26516;SDS011;14190;51.342;6.338;2023-11-18T13:59:51;0.50;;;0.50;;
26516;SDS011;14190;51.342;6.338;2023-11-18T14:02:20;3.60;;;1.40;;
26516;SDS011;14190;51.342;6.338;2023-11-18T14:04:48;2.27;;;1.25;;
26516;SDS011;14190;51.342;6.338;2023-11-18T14:07:17;1.00;;;0.75;;
26516;SDS011;14190;51.342;6.338;2023-11-18T14:09:44;1.35;;;1.25;;
26516;SDS011;14190;51.342;6.338;2023-11-18T14:12:12;4.12;;;1.10;;
26516;SDS011;14190;51.342;6.338;2023-11-18T14:14:40;2.37;;;0.82;;
26516;SDS011;14190;51.342;6.338;2023-11-18T14:17:08;0.50;;;0.42;;
26516;SDS011;14190;51.342;6.338;2023-11-18T14:19:36;0.70;;;0.70;;
26516;SDS011;14190;51.342;6.338;2023-11-18T14:22:04;0.60;;;0.60;;
26516;SDS011;14190;51.342;6.338;2023-11-18T14:24:34;1.95;;;0.88;;
26516;SDS011;14190;51.342;6.338;2023-11-18T14:27:01;0.62;;;0.60;;
26516;SDS011;14190;51.342;6.338;2023-11-18T14:29:30;1.00;;;0.90;;
26516;SDS011;14190;51.342;6.338;2023-11-18T14:31:58;1.35;;;0.75;;
26516;SDS011;14190;51.342;6.338;2023-11-18T14:34:25;0.62;;;0.62;;
26516;SDS011;14190;51.342;6.338;2023-11-18T14:36:55;2.67;;;1.25;;
26516;SDS011;14190;51.342;6.338;2023-11-18T14:39:23;5.50;;;2.33;;
26516;SDS011;14190;51.342;6.338;2023-11-18T14:41:52;1.20;;;0.82;;
26516;SDS011;14190;51.342;6.338;2023-11-18T14:44:20;3.80;;;1.02;;
26516;SDS011;14190;51.342;6.338;2023-11-18T14:46:47;1.00;;;0.70;;
26516;SDS011;14190;51.342;6.338;2023-11-18T14:49:16;0.72;;;0.68;;
26516;SDS011;14190;51.342;6.338;2023-11-18T14:51:44;0.70;;;0.70;;
26516;SDS011;14190;51.342;6.338;2023-11-18T14:54:11;1.75;;;1.32;;
26516;SDS011;14190;51.342;6.338;2023-11-18T14:56:39;1.37;;;0.85;;
26516;SDS011;14190;51.342;6.338;2023-11-18T14:59:06;2.37;;;0.60;;
26516;SDS011;14190;51.342;6.338;2023-11-18T15:01:34;5.08;;;1.10;;
26516;SDS011;14190;51.342;6.338;2023-11-18T15:04:02;4.12;;;1.70;;
26516;SDS011;14190;51.342;6.338;2023-11-18T15:06:31;3.65;;;1.70;;
26516;SDS011;14190;51.342;6.338;2023-11-18T15:08:58;1.85;;;1.35;;